To NAV CANADA Home Page Login to a new session Search on AWWS site Feedback and Comments Disclaimer Vers la page française équivalente Tips FAQ What's new on the site To the Forecasts and Observations / NOTAM section To "File a Flight Plan" website Publications and other links Update of the User's profile FIC Telephone Numbers My Weather Data Folder Route Weather Data Regional Weather Data Local Weather Data To the Forecasts and Observations / NOTAM section
Request Generated 05/30/2015 at 16:09:18 UTC . Weather information available at that time is displayed.

METAR/TAF

PRINCE ALBERT/PRINCE ALBERT (GLASS FIELD)/SK    

METAR CYPA 301600Z 18007KT 140V220 15SM BKN200 10/M01 A3032 RMK CI7
CC ASOCTD SLP284=
METAR CYPA 301500Z 19008KT 15SM BKN210 10/M02 A3033 RMK CI7 SLP287=
METAR CYPA 301400Z 17007KT 130V200 15SM BKN230 08/00 A3034 RMK CI7
SLP289=

TAF CYPA 301238Z 3013/3101 09006KT P6SM OVC210
BECMG 3013/3015 16012KT
FM302200 15012KT P6SM SCT120 BKN220
RMK NXT FCST BY 301900Z=
Your time UTC time
Weather data provided by Environment Canada and NAV CANADA